Geary, Oklahoma
Current Conditions -  °F | °C
As of 9:55 AM on Tuesday 21 Oct 2014 (Local Time) from KJWG Reporting Station
Broken Clouds Broken Clouds  
Wind Chill: 67°   Ceiling: 6500
Heat Index: 67°   Visibility: 10mi
Dew Point: 64°   Wind: 6mph
Humidity: 89%   Direction: 190°S
Pressure: 30.11"   Gusts: NA
Location:  35.63°N, 98.32°W
Report Text: KJWG 211455Z AUTO 19005KT 10SM BKN065 20/18 A3011 RMK AO2 T01950176
Loading
Personal Weather Stations






























Interactive Weather Map
Tropical Storm Tracking
New forecast layout! Learn more

10-Day Weather Forecast

Advertisements
Track Severe Weather on mobile